Latest Weather Observations for Friendly Beaches

IDT60801

Issued at 11:02 am EDT Saturday 21 January 2017 (issued every 30 minutes, with the page automatically refreshed every 10 minutes)

About weather observations | Map of weather stations | Latest weather observations for TAS | Other Formats
Station Details ID: 092114 Name: FRIENDLY BEACHES Lat: -42.00 Lon: 148.28 Height: 55.0 m
Data from the previous 72 hours. | See also: Recent months at Friendly Beaches
Date/Time
EDT
Temp
°C
App
Temp
°C
Dew
Point
°C
Rel
Hum
%
Delta-T
°C
Wind Press
QNH
hPa
Press
MSL
hPa
Rain since
9am
mm
Dir  Spd
km/h
Gust
km/h
Spd
kts
Gust
kts
21/11:00am 19.4 17.2 7.8 47 6.0 W 9 13 5 7 - 1009.1 -
21/10:30am 18.3 15.7 7.7 50 5.4 WSW 11 22 6 12 1009.6 1009.5 0.0
21/10:00am 17.6 15.7 7.6 52 5.1 SW 7 15 4 8 1009.6 1009.5 0.0
21/09:30am 16.6 14.3 7.5 55 4.6 WSW 9 15 5 8 1009.6 1009.5 0.0
21/09:00am 15.6 13.2 7.1 57 4.2 WSW 9 17 5 9 1009.7 1009.6 39.0
21/08:30am 14.6 11.7 6.4 58 4.0 WSW 11 19 6 10 1009.4 1009.3 39.0
21/08:00am 14.0 11.6 7.1 63 3.4 W 9 17 5 9 1009.0 1008.9 39.0
21/07:30am 12.7 11.0 8.4 75 2.1 W 7 13 4 7 1008.6 1008.5 39.0
21/07:00am 11.2 9.1 8.1 81 1.5 W 9 13 5 7 1008.0 1007.9 39.0
21/06:30am 9.7 8.0 7.6 87 1.0 W 6 9 3 5 1007.4 1007.3 39.0
21/06:00am 9.1 8.5 7.4 89 0.8 CALM 0 0 0 0 1007.0 1006.9 39.0
21/05:30am 9.9 8.2 7.7 86 1.1 W 6 9 3 5 1006.7 1006.5 39.0
21/05:00am 10.6 8.5 8.2 85 1.2 WSW 9 13 5 7 1006.3 1006.1 39.0
21/04:30am 10.8 8.8 8.7 87 1.0 W 9 13 5 7 1006.0 1005.8 39.0
21/04:00am 10.7 8.7 7.0 78 1.8 WSW 7 11 4 6 1005.7 1005.5 39.0
21/03:30am 11.4 7.7 6.3 71 2.4 WSW 15 24 8 13 1005.3 1005.1 39.0
21/03:00am 11.7 8.4 6.6 71 2.4 WSW 13 19 7 10 1005.1 1004.9 39.0
21/02:30am 11.8 9.4 7.1 73 2.3 WSW 9 17 5 9 1004.9 1004.7 39.0
21/02:00am 12.6 10.7 9.1 79 1.8 SW 9 19 5 10 1004.7 1004.5 39.0
21/01:30am 13.1 10.5 9.2 77 2.0 SW 13 24 7 13 1004.8 1004.6 39.0
21/01:00am 13.0 10.9 9.8 81 1.6 SW 11 19 6 10 1004.5 1004.3 39.0
21/12:30am 12.6 10.9 10.0 84 1.3 WSW 9 13 5 7 1004.2 1004.0 39.0
21/12:00am 12.4 9.9 9.6 83 1.4 WSW 13 19 7 10 1004.1 1003.9 39.0
 
Date/Time
EDT
Temp
°C
App
Temp
°C
Dew
Point
°C
Rel
Hum
%
Delta-T
°C
Wind Press
QNH
hPa
Press
MSL
hPa
Rain since
9am
mm
Dir  Spd
km/h
Gust
km/h
Spd
kts
Gust
kts
20/11:30pm 12.8 10.3 9.6 81 1.6 WSW 13 20 7 11 1003.8 1003.6 39.0
20/11:00pm 12.8 10.3 9.6 81 1.6 WSW 13 20 7 11 1003.4 1003.2 39.0
20/10:30pm 12.6 9.4 9.8 83 1.4 WSW 17 24 9 13 1003.3 1003.1 39.0
20/10:00pm 12.9 9.6 9.7 81 1.6 SW 17 26 9 14 1002.6 1002.4 39.0
20/09:30pm 13.8 10.2 9.8 77 2.1 SW 19 30 10 16 1002.4 1002.2 39.0
20/09:00pm 13.6 9.4 9.6 77 2.1 SW 22 35 12 19 1001.9 1001.7 39.0
20/08:30pm 13.2 10.5 10.4 83 1.5 SSW 15 24 8 13 1001.1 1001.0 39.0
20/08:00pm 13.3 9.8 10.3 82 1.6 SSW 19 28 10 15 1001.0 1000.9 39.0
20/07:30pm 14.4 11.1 10.8 79 1.9 SW 19 33 10 18 1000.6 1000.5 39.0
20/07:00pm 14.5 10.6 10.9 79 1.9 SSW 22 39 12 21 999.9 999.8 39.0
20/06:30pm 14.6 11.4 11.9 84 1.5 SSW 20 30 11 16 999.3 999.2 39.0
20/06:00pm 13.2 9.8 11.4 89 1.0 SW 20 33 11 18 998.6 998.5 39.0
20/05:30pm 13.2 10.0 11.9 92 0.7 SSW 20 32 11 17 997.8 997.7 39.0
20/05:00pm 13.3 10.7 12.0 92 0.7 SSW 17 30 9 16 997.3 997.2 39.0
20/04:30pm 13.1 10.6 12.3 95 0.4 S 17 24 9 13 997.1 997.0 38.8
20/04:00pm 12.7 10.4 11.9 95 0.4 S 15 24 8 13 996.9 996.8 38.4
20/03:30pm 12.7 9.5 11.9 95 0.4 SSE 20 37 11 20 996.6 996.5 37.4
20/03:00pm 12.9 9.4 12.1 95 0.4 S 22 39 12 21 996.2 996.1 35.8
20/02:30pm 13.0 7.5 12.4 96 0.3 SSE 33 46 18 25 995.8 995.7 34.6
20/02:09pm 12.8 6.4 12.0 95 0.4 SSE 37 57 20 31 995.2 995.1 33.6
20/02:00pm 12.7 5.1 11.9 95 0.4 SSE 43 57 23 31 994.9 994.8 32.8
20/01:32pm 13.0 7.1 12.4 96 0.3 SSE 35 54 19 29 994.7 994.6 31.4
20/01:30pm 12.9 6.6 12.3 96 0.3 SSE 37 54 20 29 994.6 994.5 31.4
20/01:00pm 12.4 4.7 11.6 95 0.4 SE 43 57 23 31 994.3 994.2 30.2
20/12:30pm 12.4 4.8 11.8 96 0.3 SE 43 54 23 29 994.3 994.2 28.4
20/12:00pm 12.4 5.2 11.8 96 0.3 SE 41 63 22 34 994.6 994.5 26.0
20/11:42am 12.3 4.7 11.7 96 0.3 SE 43 61 23 33 994.8 994.7 24.8
20/11:30am 12.1 4.2 11.5 96 0.3 SSE 44 57 24 31 994.9 994.8 24.0
20/11:00am 12.5 4.4 11.9 96 0.3 SE 46 65 25 35 994.9 994.8 20.0
20/10:34am 12.7 5.6 12.2 97 0.3 SSE 41 61 22 33 995.0 994.9 14.4
20/10:30am 12.7 5.2 12.2 97 0.3 SE 43 61 23 33 995.1 995.0 13.4
20/10:00am 13.0 5.4 12.4 96 0.3 SE 44 57 24 31 995.4 995.3 8.2
20/09:30am 13.3 5.4 12.7 96 0.3 SE 46 59 25 32 995.8 995.7 4.0
20/09:00am 13.4 5.5 12.8 96 0.3 ESE 46 61 25 33 996.6 996.5 44.2
20/08:30am 13.7 6.3 13.1 96 0.3 ESE 44 59 24 32 996.7 996.6 41.2
20/08:00am 13.7 8.6 13.1 96 0.3 ESE 32 44 17 24 997.6 997.5 38.6
20/07:30am 13.7 11.1 13.1 96 0.3 ESE 19 26 10 14 999.0 998.9 28.4
20/07:00am 13.8 9.0 13.0 95 0.4 ENE 30 44 16 24 998.2 998.1 15.6
20/06:30am 13.7 10.4 12.9 95 0.4 E 22 30 12 16 998.6 998.5 9.2
20/06:00am 13.5 10.1 12.4 93 0.6 ENE 22 35 12 19 999.7 999.6 3.0
20/05:30am 14.2 10.4 11.2 82 1.6 ENE 22 32 12 17 1000.7 1000.6 0.2
20/05:00am 15.0 11.5 11.0 77 2.1 ENE 20 32 11 17 1001.7 1001.5 0.0
20/04:30am 14.6 12.5 11.0 79 1.9 NNE 13 22 7 12 1003.5 1003.3 0.0
20/04:00am 14.1 12.8 11.1 82 1.6 NNE 9 19 5 10 1004.0 1003.8 0.0
20/03:30am 15.3 12.1 10.1 71 2.7 NE 17 26 9 14 1004.7 1004.5 0.0
20/03:00am 15.2 12.3 9.6 69 2.9 NNE 15 26 8 14 1005.8 1005.6 0.0
20/02:30am 15.1 12.8 9.0 67 3.1 N 11 20 6 11 1006.3 1006.1 0.0
20/02:00am 15.1 12.5 9.2 68 3.0 NNE 13 22 7 12 1006.3 1006.1 0.0
20/01:30am 15.0 12.3 8.9 67 3.1 NNE 13 22 7 12 1006.1 1005.9 0.0
20/01:00am 14.9 12.1 8.4 65 3.3 N 13 22 7 12 1006.6 1006.4 0.0
20/12:30am 15.0 11.8 8.5 65 3.3 N 15 28 8 15 1007.1 1007.0 0.0
20/12:00am 15.0 11.4 8.5 65 3.3 NNE 17 30 9 16 1007.6 1007.5 0.0
 
Date/Time
EDT
Temp
°C
App
Temp
°C
Dew
Point
°C
Rel
Hum
%
Delta-T
°C
Wind Press
QNH
hPa
Press
MSL
hPa
Rain since
9am
mm
Dir  Spd
km/h
Gust
km/h
Spd
kts
Gust
kts
19/11:30pm 15.1 11.3 9.2 68 3.0 NNE 19 30 10 16 1008.3 1008.2 0.0
19/11:00pm 15.1 11.2 9.5 69 2.9 NNE 20 33 11 18 1008.5 1008.4 0.0
19/10:30pm 15.0 11.1 9.4 69 2.9 NNE 20 33 11 18 1009.4 1009.3 0.0
19/10:00pm 14.6 10.8 9.2 70 2.8 NE 19 32 10 17 1009.8 1009.7 0.0
19/09:30pm 14.5 10.6 8.5 67 3.0 NNE 19 32 10 17 1010.6 1010.5 0.0
19/09:00pm 14.3 11.1 8.3 67 3.0 NNE 15 24 8 13 1011.2 1011.1 0.0
19/08:30pm 14.5 11.0 7.3 62 3.5 NNE 15 24 8 13 1011.5 1011.4 0.0
19/08:00pm 14.8 11.7 7.4 61 3.7 NNE 13 20 7 11 1011.9 1011.8 0.0
19/07:30pm 15.4 12.4 7.9 61 3.8 NE 13 22 7 12 1011.9 1011.8 0.0
19/07:00pm 15.8 13.2 7.6 58 4.1 NNE 11 17 6 9 1012.4 1012.3 0.0
19/06:30pm 17.1 14.1 7.5 53 4.8 NE 13 20 7 11 1012.2 1012.1 0.0
19/06:00pm 17.6 14.3 7.9 53 4.9 NE 15 24 8 13 1012.5 1012.4 0.0
19/05:30pm 18.0 14.5 7.1 49 5.5 E 15 22 8 12 1012.2 1012.1 0.0
19/05:00pm 18.6 15.1 7.4 48 5.7 E 15 22 8 12 1013.1 1013.0 0.0
19/04:30pm 18.8 15.2 6.9 46 6.0 E 15 22 8 12 1013.6 1013.5 0.0
19/04:00pm 18.8 15.2 6.6 45 6.1 E 15 22 8 12 1014.3 1014.2 0.0
19/03:30pm 19.1 15.5 6.6 44 6.3 E 15 22 8 12 1014.7 1014.6 0.0
19/03:00pm 18.9 14.8 6.1 43 6.3 ESE 17 22 9 12 1014.7 1014.6 0.0
19/02:30pm 19.6 15.6 6.7 43 6.5 ESE 17 24 9 13 1015.1 1015.0 0.0
19/02:00pm 19.2 14.7 6.3 43 6.4 ESE 19 30 10 16 1015.4 1015.3 0.0
19/01:30pm 20.2 15.8 6.5 41 6.9 ESE 19 26 10 14 1015.6 1015.5 0.0
19/01:00pm 19.7 15.0 6.1 41 6.8 ESE 20 24 11 13 1015.9 1015.8 0.0
19/12:30pm 19.3 15.1 5.7 41 6.7 ESE 17 22 9 12 1016.5 1016.4 0.0
19/12:00pm 19.7 15.5 5.7 40 6.9 SE 17 22 9 12 1016.5 1016.4 0.0
19/11:30am 18.2 14.1 6.1 45 6.0 ESE 17 24 9 13 1016.8 1016.7 0.0
19/11:00am 18.6 14.6 5.1 41 6.5 SE 15 20 8 11 1017.1 1017.0 0.0
19/10:30am 17.2 13.6 5.2 45 5.8 SSE 13 20 7 11 1017.5 1017.4 0.0
19/10:00am 15.9 12.5 4.0 45 5.5 S 11 24 6 13 1017.6 1017.5 0.0
19/09:30am 15.6 11.8 3.7 45 5.5 SSW 13 22 7 12 1017.5 1017.4 0.0
19/09:00am 15.1 11.4 4.2 48 5.0 SSW 13 19 7 10 1017.7 1017.6 0.0
19/08:30am 13.6 10.2 3.9 52 4.4 SW 11 22 6 12 1017.8 1017.7 0.0
19/08:00am 12.9 10.1 5.1 59 3.6 WSW 9 15 5 8 1017.7 1017.6 0.0
19/07:30am 11.1 8.6 4.6 64 2.9 W 7 13 4 7 1017.4 1017.3 0.0
19/07:00am 9.6 6.6 4.2 69 2.4 W 9 13 5 7 1017.1 1017.0 0.0
19/06:30am 8.4 5.0 4.2 75 1.8 W 11 15 6 8 1016.8 1016.7 0.0
19/06:00am 8.6 5.7 4.4 75 1.8 W 9 15 5 8 1016.4 1016.3 0.0
19/05:30am 8.3 5.8 4.5 77 1.7 W 7 11 4 6 1016.2 1016.1 0.0
19/05:00am 8.8 5.8 4.2 73 2.0 W 9 11 5 6 1016.1 1016.0 0.0
19/04:30am 9.1 6.1 3.9 70 2.3 W 9 13 5 7 1016.1 1016.0 0.0
19/04:00am 9.4 6.3 3.6 67 2.5 WSW 9 13 5 7 1016.1 1016.0 0.0
19/03:30am 9.3 6.3 4.3 71 2.2 WSW 9 13 5 7 1016.3 1016.2 0.0
19/03:00am 9.7 6.3 4.1 68 2.5 WSW 11 15 6 8 1016.3 1016.2 0.0
19/02:30am 10.0 6.6 4.0 66 2.7 WSW 11 13 6 7 1016.3 1016.2 0.0
19/02:00am 9.8 7.0 3.1 63 2.9 W 7 9 4 5 1016.4 1016.3 0.0
19/01:30am 10.3 7.6 3.6 63 2.9 W 7 9 4 5 1016.4 1016.3 0.0
19/01:00am 10.7 8.2 3.7 62 3.1 W 6 7 3 4 1016.2 1016.1 0.0
19/12:30am 11.7 8.2 3.5 57 3.6 WSW 11 17 6 9 1016.1 1016.0 0.0
19/12:00am 12.3 9.2 3.8 56 3.8 WSW 9 17 5 9 1015.9 1015.8 0.0
 
Date/Time
EDT
Temp
°C
App
Temp
°C
Dew
Point
°C
Rel
Hum
%
Delta-T
°C
Wind Press
QNH
hPa
Press
MSL
hPa
Rain since
9am
mm
Dir  Spd
km/h
Gust
km/h
Spd
kts
Gust
kts
18/11:30pm 13.1 9.3 3.7 53 4.2 SW 13 22 7 12 1015.7 1015.6 0.0
18/11:00pm 13.6 9.9 4.7 55 4.1 SW 13 22 7 12 1015.8 1015.7 0.0
18/10:30pm 13.6 9.5 6.2 61 3.5 SSW 17 30 9 16 1015.6 1015.5 0.0
18/10:00pm 13.5 9.4 6.1 61 3.5 S 17 28 9 15 1015.3 1015.2 0.0
18/09:30pm 13.9 8.9 6.3 60 3.6 S 22 41 12 22 1014.7 1014.6 0.0
18/09:00pm 14.0 9.9 6.1 59 3.8 S 17 30 9 16 1014.5 1014.4 0.0
18/08:30pm 14.5 10.4 6.3 58 4.0 S 17 24 9 13 1014.2 1014.1 0.0
18/08:00pm 15.6 10.7 5.2 50 4.9 S 20 32 11 17 1013.2 1013.1 0.0
18/07:30pm 17.0 12.6 4.7 44 5.8 S 17 28 9 15 1012.9 1012.8 0.0
18/07:00pm 18.3 13.4 4.1 39 6.7 S 19 35 10 19 1012.1 1012.0 0.0
18/06:30pm 19.0 13.9 2.8 34 7.5 S 19 32 10 17 1011.7 1011.6 0.0
18/06:00pm 19.2 13.1 3.0 34 7.6 S 24 39 13 21 1011.2 1011.1 0.0
18/05:30pm 20.3 14.6 2.6 31 8.3 S 22 35 12 19 1011.0 1010.9 0.0
18/05:00pm 20.4 15.2 2.7 31 8.3 SSW 19 33 10 18 1010.6 1010.5 0.0
18/04:30pm 21.3 15.8 1.6 27 9.1 SSW 20 33 11 18 1010.3 1010.2 0.0
18/04:00pm 21.5 15.1 3.2 30 8.7 SSW 26 39 14 21 1009.9 1009.8 0.0
18/03:30pm 20.5 14.9 3.3 32 8.2 SSW 22 43 12 23 1009.7 1009.6 0.0
18/03:00pm 21.0 15.1 3.7 32 8.3 SSW 24 39 13 21 1009.4 1009.3 0.0
18/02:30pm 21.2 15.0 4.3 33 8.2 SSW 26 46 14 25 1009.1 1009.0 0.0
18/02:00pm 21.3 16.3 3.5 31 8.5 SSW 19 33 10 18 1009.0 1008.9 0.0
18/01:30pm 19.2 14.0 3.4 35 7.4 SSW 20 32 11 17 1008.7 1008.6 0.0
18/01:00pm 19.5 14.3 3.6 35 7.6 SW 20 43 11 23 1008.3 1008.2 0.0
18/12:30pm 20.0 14.4 3.3 33 7.9 SW 22 41 12 22 1007.9 1007.8 0.0
18/12:00pm 20.1 13.3 3.3 33 8.0 SSW 28 44 15 24 1007.4 1007.3 0.0
18/11:52am 19.6 12.8 3.3 34 7.7 SSW 28 46 15 25 1007.3 1007.2 0.0
18/11:30am 18.9 11.7 3.1 35 7.4 SSW 30 48 16 26 1007.2 1007.1 0.0
18/11:08am 18.4 11.5 2.3 34 7.4 SW 28 46 15 25 1006.9 1006.8 0.0

Other Formats:

Comma delimited format used in spreadsheet applications
http://www.bom.gov.au/fwo/IDT60801/IDT60801.94987.axf

JavaScript Object Notation format (JSON) in row-major order
http://www.bom.gov.au/fwo/IDT60801/IDT60801.94987.json